createdAt,value
2018-08-12T00:02:03.077Z,17.14
2018-08-12T00:06:57.760Z,17.37
2018-08-12T00:11:52.482Z,17.41
2018-08-12T00:16:47.207Z,16.95
2018-08-12T00:21:42.557Z,17.17
2018-08-12T00:26:37.195Z,17.01
2018-08-12T00:31:31.807Z,16.92
2018-08-12T00:36:26.488Z,16.97
2018-08-12T00:41:21.146Z,16.99
2018-08-12T00:46:15.838Z,16.78
2018-08-12T00:51:10.518Z,16.82
2018-08-12T00:56:05.258Z,16.45
2018-08-12T01:00:59.970Z,16.52
2018-08-12T01:05:54.696Z,16.74
2018-08-12T01:10:49.418Z,16.68
2018-08-12T01:15:44.075Z,16.50
2018-08-12T01:20:38.870Z,16.50
2018-08-12T01:25:33.607Z,16.36
2018-08-12T01:30:28.353Z,16.37
2018-08-12T01:35:23.326Z,16.22
2018-08-12T01:40:18.842Z,16.33
2018-08-12T01:50:00.376Z,16.08
2018-08-12T01:54:55.287Z,16.13
2018-08-12T01:59:49.933Z,16.08
2018-08-12T02:04:44.595Z,16.02
2018-08-12T02:09:39.239Z,15.80
2018-08-12T02:14:33.897Z,15.65
2018-08-12T02:19:28.535Z,15.94
2018-08-12T02:24:23.215Z,15.86
2018-08-12T02:29:17.889Z,15.60
2018-08-12T02:34:12.616Z,15.62
2018-08-12T02:39:10.608Z,15.74
2018-08-12T02:44:05.635Z,15.62
2018-08-12T02:49:00.296Z,15.44
2018-08-12T02:53:54.991Z,15.42
2018-08-12T02:58:49.670Z,15.36
2018-08-12T03:03:44.590Z,15.07
2018-08-12T03:08:39.178Z,15.45
2018-08-12T03:13:33.868Z,15.56
2018-08-12T03:18:28.533Z,15.22
2018-08-12T03:23:23.208Z,15.31
2018-08-12T03:28:17.891Z,15.10
2018-08-12T03:33:12.544Z,15.19
2018-08-12T03:38:07.667Z,14.95
2018-08-12T03:43:02.297Z,15.00
2018-08-12T03:47:57.286Z,15.06
2018-08-12T03:52:52.010Z,14.97
2018-08-12T03:57:46.716Z,14.96
2018-08-12T04:02:41.437Z,15.05
2018-08-12T04:07:36.089Z,14.94
2018-08-12T04:12:30.799Z,14.91
2018-08-12T04:17:25.461Z,14.98
2018-08-12T04:22:20.080Z,14.91
2018-08-12T04:27:14.707Z,14.90
2018-08-12T04:32:09.875Z,14.77
2018-08-12T04:37:04.517Z,14.67
2018-08-12T04:41:59.244Z,14.60
2018-08-12T04:46:53.856Z,14.69
2018-08-12T04:51:48.497Z,15.33
2018-08-12T04:56:43.162Z,16.11
2018-08-12T05:01:37.811Z,16.65
2018-08-12T05:06:32.582Z,16.87
2018-08-12T05:11:27.377Z,17.06
2018-08-12T05:16:22.115Z,17.16
2018-08-12T05:21:16.737Z,17.37
2018-08-12T05:26:11.399Z,17.45
2018-08-12T05:31:06.225Z,17.48
2018-08-12T05:36:00.797Z,17.45
2018-08-12T05:40:55.423Z,17.43
2018-08-12T05:45:50.031Z,17.39
2018-08-12T05:50:44.680Z,17.35
2018-08-12T05:55:39.396Z,17.33
2018-08-12T06:00:34.057Z,17.35
2018-08-12T06:05:28.719Z,17.34
2018-08-12T06:10:23.393Z,17.26
2018-08-12T06:15:18.956Z,17.34
2018-08-12T06:20:13.970Z,17.44
2018-08-12T06:25:10.025Z,17.61
2018-08-12T06:30:07.963Z,17.68
2018-08-12T06:35:03.255Z,17.85
2018-08-12T06:39:57.963Z,17.87
2018-08-12T06:44:52.619Z,17.99
2018-08-12T06:49:47.269Z,18.32
2018-08-12T06:54:41.987Z,18.70
2018-08-12T06:59:36.649Z,18.87
2018-08-12T07:04:31.316Z,19.07
2018-08-12T07:09:26.250Z,19.36
2018-08-12T07:14:20.922Z,19.72
2018-08-12T07:19:15.708Z,20.18
2018-08-12T07:24:10.384Z,20.55
2018-08-12T07:29:05.097Z,20.97
2018-08-12T07:33:59.865Z,21.49
2018-08-12T07:38:54.723Z,22.12
2018-08-12T07:43:49.411Z,22.60
2018-08-12T07:48:44.094Z,22.66
2018-08-12T07:53:38.792Z,22.86
2018-08-12T07:58:33.469Z,23.21
2018-08-12T08:03:28.209Z,23.44
2018-08-12T08:08:23.020Z,23.34
2018-08-12T08:13:17.881Z,23.48
2018-08-12T08:18:14.080Z,23.89
2018-08-12T08:23:08.781Z,24.15
2018-08-12T08:28:03.632Z,24.02
2018-08-12T08:32:58.383Z,24.14
2018-08-12T08:37:53.142Z,24.69
2018-08-12T08:42:47.971Z,24.26
2018-08-12T08:47:43.620Z,24.25
2018-08-12T08:52:38.931Z,24.79
2018-08-12T08:57:33.712Z,25.10
2018-08-12T09:02:28.623Z,25.41
2018-08-12T09:07:23.290Z,25.59
2018-08-12T09:12:17.948Z,25.76
2018-08-12T09:17:12.702Z,25.66
2018-08-12T09:22:07.363Z,25.63
2018-08-12T09:27:02.182Z,26.01
2018-08-12T09:31:56.943Z,26.25
2018-08-12T09:36:51.800Z,26.42
2018-08-12T09:41:46.461Z,26.34
2018-08-12T09:46:41.472Z,25.88
2018-08-12T09:51:36.503Z,26.49
2018-08-12T09:56:31.364Z,26.84
2018-08-12T10:01:26.857Z,26.61
2018-08-12T10:06:21.651Z,26.64
2018-08-12T10:11:16.404Z,26.71
2018-08-12T10:16:11.195Z,26.64
2018-08-12T10:21:06.010Z,26.66
2018-08-12T10:26:00.630Z,27.06
2018-08-12T10:30:55.327Z,26.94
2018-08-12T10:35:50.018Z,26.83
2018-08-12T10:40:44.705Z,26.95
2018-08-12T10:45:39.476Z,26.87
2018-08-12T10:50:34.223Z,27.00
2018-08-12T10:55:29.353Z,27.21
2018-08-12T11:00:26.810Z,27.28
2018-08-12T11:05:21.556Z,27.27
2018-08-12T11:10:16.623Z,27.47
2018-08-12T11:15:11.522Z,27.65
2018-08-12T11:20:06.899Z,27.93
2018-08-12T11:25:01.523Z,28.20
2018-08-12T11:29:56.281Z,28.26
2018-08-12T11:34:50.981Z,28.26
2018-08-12T11:39:45.534Z,28.32
2018-08-12T11:44:40.275Z,28.37
2018-08-12T11:49:34.895Z,28.50
2018-08-12T11:54:29.747Z,27.95
2018-08-12T11:59:24.408Z,28.40
2018-08-12T12:04:20.113Z,28.26
2018-08-12T12:09:14.699Z,28.38
2018-08-12T12:14:09.367Z,28.45
2018-08-12T12:19:04.250Z,28.47
2018-08-12T12:23:58.988Z,28.26
2018-08-12T12:28:53.658Z,28.35
2018-08-12T12:33:48.367Z,28.28
2018-08-12T12:38:43.046Z,28.04
2018-08-12T12:43:37.629Z,28.36
2018-08-12T12:48:32.347Z,28.09
2018-08-12T12:53:27.057Z,28.02
2018-08-12T12:58:21.673Z,27.48
2018-08-12T13:03:16.303Z,27.52
2018-08-12T13:08:10.949Z,27.45
2018-08-12T13:13:05.595Z,27.42
2018-08-12T13:18:00.233Z,27.54
2018-08-12T13:22:54.858Z,27.75
2018-08-12T13:27:49.491Z,27.85
2018-08-12T13:32:45.147Z,27.67
2018-08-12T13:37:39.798Z,27.43
2018-08-12T13:42:34.511Z,27.34
2018-08-12T13:47:29.474Z,27.42
2018-08-12T13:52:24.145Z,27.57
2018-08-12T13:57:18.804Z,27.62
2018-08-12T14:02:13.859Z,27.57
2018-08-12T14:07:08.597Z,27.71
2018-08-12T14:12:03.267Z,27.62
2018-08-12T14:16:58.100Z,27.58
2018-08-12T14:21:52.826Z,27.59
2018-08-12T14:26:47.514Z,27.46
2018-08-12T14:31:42.142Z,27.36
2018-08-12T14:36:36.823Z,27.50
2018-08-12T14:41:31.534Z,27.62
2018-08-12T14:46:29.242Z,27.44
2018-08-12T14:51:23.904Z,27.61
2018-08-12T14:56:18.610Z,27.62
2018-08-12T15:01:13.260Z,27.71
2018-08-12T15:06:07.998Z,27.87
2018-08-12T15:11:02.767Z,27.94
2018-08-12T15:15:57.380Z,27.99
2018-08-12T15:20:52.010Z,27.87
2018-08-12T15:25:46.665Z,27.77
2018-08-12T15:30:41.300Z,27.60
2018-08-12T15:35:35.982Z,27.58
2018-08-12T15:40:30.652Z,27.64
2018-08-12T15:50:27.231Z,27.77
2018-08-12T15:55:21.989Z,27.84
2018-08-12T16:00:20.491Z,27.84
2018-08-12T16:05:15.230Z,27.60
2018-08-12T16:10:17.986Z,27.78
2018-08-12T16:15:13.194Z,27.71
2018-08-12T16:20:08.739Z,27.79
2018-08-12T16:25:03.451Z,27.63
2018-08-12T16:29:58.145Z,27.57
2018-08-12T16:34:52.747Z,27.64
2018-08-12T16:39:47.369Z,27.60
2018-08-12T16:44:42.011Z,27.44
2018-08-12T16:49:36.612Z,27.51
2018-08-12T16:54:31.212Z,27.45
2018-08-12T16:59:25.837Z,27.41
2018-08-12T17:04:20.785Z,27.25
2018-08-12T17:09:15.288Z,27.35
2018-08-12T17:14:09.958Z,27.31
2018-08-12T17:19:04.662Z,27.39
2018-08-12T17:23:59.305Z,27.38
2018-08-12T17:28:54.217Z,27.29
2018-08-12T17:33:48.858Z,27.21
2018-08-12T17:38:43.475Z,27.11
2018-08-12T17:43:38.119Z,27.12
2018-08-12T17:48:32.770Z,26.98
2018-08-12T17:53:27.436Z,26.85
2018-08-12T17:58:22.496Z,26.79
2018-08-12T18:03:17.283Z,26.67
2018-08-12T18:08:12.036Z,26.45
2018-08-12T18:13:06.689Z,26.35
2018-08-12T18:18:01.536Z,26.15
2018-08-12T18:22:56.250Z,25.92
2018-08-12T18:27:51.830Z,25.71
2018-08-12T18:32:46.588Z,25.66
2018-08-12T18:37:41.616Z,25.44
2018-08-12T18:42:36.619Z,25.33
2018-08-12T18:47:31.395Z,25.08
2018-08-12T18:52:26.608Z,24.82
2018-08-12T18:57:22.332Z,24.63
2018-08-12T19:02:17.090Z,24.59
2018-08-12T19:07:12.753Z,24.47
2018-08-12T19:12:08.876Z,24.32
2018-08-12T19:17:04.791Z,24.18
2018-08-12T19:21:59.592Z,24.10
2018-08-12T19:26:54.448Z,23.89
2018-08-12T19:31:49.067Z,23.80
2018-08-12T19:36:43.838Z,23.73
2018-08-12T19:41:38.468Z,23.70
2018-08-12T19:46:33.223Z,23.48
2018-08-12T19:51:27.817Z,23.38
2018-08-12T19:56:22.378Z,23.48
2018-08-12T20:01:17.019Z,23.38
2018-08-12T20:06:11.701Z,23.24
2018-08-12T20:11:06.350Z,22.99
2018-08-12T20:16:00.977Z,23.06
2018-08-12T20:20:55.631Z,23.01
2018-08-12T20:25:50.278Z,22.93
2018-08-12T20:30:44.913Z,22.81
2018-08-12T20:35:39.536Z,22.62
2018-08-12T20:40:34.230Z,22.53
2018-08-12T20:45:28.932Z,22.47
2018-08-12T20:50:23.521Z,22.29
2018-08-12T20:55:18.149Z,22.32
2018-08-12T21:00:12.887Z,21.97
2018-08-12T21:05:08.451Z,22.04
2018-08-12T21:10:03.213Z,21.91
2018-08-12T21:14:57.913Z,21.75
2018-08-12T21:19:52.620Z,21.75
2018-08-12T21:24:47.332Z,21.62
2018-08-12T21:29:41.960Z,21.41
2018-08-12T21:34:36.664Z,21.80
2018-08-12T21:39:31.318Z,21.77
2018-08-12T21:44:26.020Z,21.50
2018-08-12T21:49:20.610Z,21.48
2018-08-12T21:54:15.381Z,21.39
2018-08-12T21:59:10.100Z,21.26
2018-08-12T22:04:04.879Z,21.37
2018-08-12T22:08:59.542Z,21.46
2018-08-12T22:13:54.196Z,21.33
2018-08-12T22:18:48.856Z,21.07
2018-08-12T22:23:43.659Z,21.07
2018-08-12T22:28:38.287Z,21.17
2018-08-12T22:33:33.150Z,20.74
2018-08-12T22:38:27.953Z,20.96
2018-08-12T22:43:22.713Z,20.92
2018-08-12T22:48:17.425Z,20.90
2018-08-12T22:53:12.122Z,20.62
2018-08-12T22:58:07.110Z,20.47
2018-08-12T23:03:02.145Z,20.58
2018-08-12T23:08:00.879Z,20.42
2018-08-12T23:12:55.533Z,20.29
2018-08-12T23:17:50.235Z,20.39
2018-08-12T23:22:44.946Z,20.50
2018-08-12T23:27:39.614Z,20.26
2018-08-12T23:32:34.323Z,20.26
2018-08-12T23:37:29.011Z,20.01
2018-08-12T23:42:23.706Z,19.72
2018-08-12T23:47:18.329Z,19.55
2018-08-12T23:52:12.962Z,19.76
2018-08-12T23:57:07.624Z,19.74
